Arrington Corner, Kentucky
Current Conditions -  °F | °C
As of 6:56 PM on Monday 20 Oct 2014 (Local Time) from KOWB Reporting Station
Broken Clouds Broken Clouds  
Wind Chill: 18°   Ceiling: 9500
Heat Index: 18°   Visibility: 10mi
Dew Point: 13°   Wind: 9mph
Humidity: 70%   Direction: 240°WSW
Pressure: 29.93"   Gusts: NA
Location:  37.8331°N, 86.7635°W
Report Text: KOWB 202356Z 24008KT 10SM SCT055 BKN095 18/13 A2993 RMK AO2 53007 60000 T01830127 10222 20183 SLP133
Loading
Personal Weather Stations






























Interactive Weather Map
Tropical Storm Tracking
New forecast layout! Learn more

10-Day Weather Forecast

Advertisements
Track Severe Weather on mobile